Mestre Silva — CUFZ5 — position and weather

sailwx.info

Track history (hours):
 
Tides and Currents Weather Stations Pressure Air Temp Water Temp Dewpoint Dewpoint Depression Visibility Wind Speed Wind Dir Waves Ship Positions

Mestre Silva

Last reported at 2018-Apr-20 15:30 UTC. Time now 2018-Apr-21 00:26 UTC.
Position N 41°11' W 008°42'.

Length 12 m.

Type: Fishing. MMSI: 263420860.

Date/timePositionNaut miles runAvg speedWind from/ knotsBaromVisibWave heightAir tempDewpointWater temp
2018-Apr-20 15:30N 41°11' W 008°42'0 0.0
2018-Apr-20 15:00N 41°11' W 008°42'0 0.0
2018-Apr-20 14:30N 41°11' W 008°42'0 0.0
2018-Apr-20 14:00N 41°11' W 008°42'0 0.1
2018-Apr-20 13:30N 41°11' W 008°42'3 6.4
2018-Apr-20 13:00N 41°09' W 008°45'3 6.0
2018-Apr-20 12:28N 41°06' W 008°47'1 0.0
2018-Apr-19 20:06N 41°05' W 008°46'1 6.5
2018-Apr-19 20:00N 41°06' W 008°46'3 6.4
2018-Apr-19 19:30N 41°09' W 008°43'3 5.5
2018-Apr-19 19:00N 41°11' W 008°42'0 0.0
2018-Apr-19 18:30N 41°11' W 008°42'0 0.0
2018-Apr-19 17:59N 41°11' W 008°42'0 0.0
2018-Apr-19 17:30N 41°11' W 008°42'0 0.0
2018-Apr-19 17:00N 41°11' W 008°42'0 0.0
2018-Apr-19 16:30N 41°11' W 008°42'0 0.0
2018-Apr-19 16:00N 41°11' W 008°42'0 0.0
2018-Apr-19 15:30N 41°11' W 008°42'0 0.0
2018-Apr-19 15:00N 41°11' W 008°42'0 0.3
2018-Apr-19 14:30N 41°11' W 008°42'2 4.7
2018-Apr-19 14:00N 41°09' W 008°43'2 4.3
2018-Apr-19 13:30N 41°07' W 008°44'1 0.1
2018-Apr-18 19:13N 41°07' W 008°46'1 6.6
2018-Apr-18 19:00N 41°08' W 008°45'3 5.7
2018-Apr-18 18:31N 41°10' W 008°42'1 1.3
2018-Apr-18 18:00N 41°11' W 008°42'0 0.0
2018-Apr-18 17:31N 41°11' W 008°42'0 0.0
2018-Apr-18 17:01N 41°11' W 008°42'0 0.0
2018-Apr-18 16:31N 41°11' W 008°42'0 0.0
2018-Apr-18 16:01N 41°11' W 008°42'0 0.0
2018-Apr-18 15:30N 41°11' W 008°42'0 0.0
2018-Apr-18 15:00N 41°11' W 008°42'0 0.0
2018-Apr-18 14:30N 41°11' W 008°42'0 0.0
2018-Apr-18 14:00N 41°11' W 008°42'0 0.0
2018-Apr-18 13:30N 41°11' W 008°42'0 0.0
2018-Apr-18 13:00N 41°11' W 008°42'0 0.0
2018-Apr-18 12:30N 41°11' W 008°42'0 0.0
2018-Apr-18 12:00N 41°11' W 008°42'0 0.4
2018-Apr-18 11:30N 41°11' W 008°42'3 6.0
2018-Apr-18 11:00N 41°08' W 008°44'2 0.1
2018-Apr-17 19:04N 41°07' W 008°45'0 6.8
2018-Apr-17 19:00N 41°07' W 008°45'3 6.1
2018-Apr-17 18:30N 41°10' W 008°43'1 2.9
2018-Apr-17 18:00N 41°11' W 008°42'0 0.0
2018-Apr-17 17:30N 41°11' W 008°42'0 0.0
2018-Apr-17 16:59N 41°11' W 008°42'0 0.0
2018-Apr-17 13:47N 41°11' W 008°42'0 0.0
2018-Apr-17 13:30N 41°11' W 008°42'1 2.7
2018-Apr-17 13:00N 41°10' W 008°43'3 6.6
2018-Apr-17 12:30N 41°07' W 008°45'2 0.1
2018-Apr-16 19:34N 41°05' W 008°46'0 5.7
2018-Apr-16 19:30N 41°06' W 008°46'3 5.6
2018-Apr-16 19:00N 41°08' W 008°44'3 5.1
2018-Apr-16 18:30N 41°10' W 008°42'1 1.4
2018-Apr-16 18:00N 41°11' W 008°42'0 0.0
2018-Apr-16 17:30N 41°11' W 008°42'0 0.0
2018-Apr-16 17:00N 41°11' W 008°42'0 0.0
2018-Apr-16 16:30N 41°11' W 008°42'0 0.0
2018-Apr-16 15:52N 41°11' W 008°42'0 0.0
2018-Apr-16 15:30N 41°11' W 008°42'0 0.0
2018-Apr-16 15:00N 41°11' W 008°42'0 0.1
2018-Apr-16 14:30N 41°11' W 008°42'0 0.2
2018-Apr-16 14:00N 41°11' W 008°42'3 6.1
2018-Apr-16 13:30N 41°08' W 008°44'4 0.2
2018-Apr-15 21:13N 41°05' W 008°46'1 5.9
2018-Apr-15 21:00N 41°06' W 008°45'3 5.8
2018-Apr-15 20:30N 41°09' W 008°43'2 4.8
2018-Apr-15 20:00N 41°11' W 008°42'0 0.0
2018-Apr-13 23:58N 41°11' W 008°42'0 0.0
2018-Apr-13 23:31N 41°11' W 008°42'0 0.0
2018-Apr-13 13:40N 41°11' W 008°42'0 0.0
2018-Apr-13 13:30N 41°11' W 008°42'0 0.4
2018-Apr-13 13:00N 41°11' W 008°42'3 5.8
2018-Apr-13 12:30N 41°08' W 008°44'3 0.2
2018-Apr-12 18:58N 41°05' W 008°46'2 5.2
2018-Apr-12 18:30N 41°07' W 008°45'2 4.8
2018-Apr-12 18:00N 41°09' W 008°43'2 3.5
2018-Apr-12 17:30N 41°11' W 008°42'0 0.0
2018-Apr-12 17:00N 41°11' W 008°42'0 0.0
2018-Apr-12 16:30N 41°11' W 008°42'0 0.0
2018-Apr-12 16:00N 41°11' W 008°42'0 0.0
2018-Apr-12 15:30N 41°11' W 008°42'0 0.0
2018-Apr-12 15:00N 41°11' W 008°42'0 0.0
2018-Apr-12 14:30N 41°11' W 008°42'0 0.0
2018-Apr-12 14:00N 41°11' W 008°42'0 0.8
2018-Apr-12 13:30N 41°11' W 008°42'3 6.4
2018-Apr-12 12:59N 41°08' W 008°44'2 0.1
2018-Apr-11 19:56N 41°06' W 008°45'3 6.0
2018-Apr-11 19:30N 41°08' W 008°44'  
Track history (hours):
 
Tides and Currents Weather Stations Pressure Air Temp Water Temp Dewpoint Dewpoint Depression Visibility Wind Speed Wind Dir Waves Ship Positions

Mestre Silva

Last reported at 2018-Apr-20 15:30 UTC. Time now 2018-Apr-21 00:26 UTC.
Position N 41°11' W 008°42'.

Length 12 m.

Type: Fishing. MMSI: 263420860.

Date/timePositionNaut miles runAvg speedWind from/ knotsBaromVisibWave heightAir tempDewpointWater temp
2018-Apr-20 15:30N 41°11' W 008°42'0 0.0
2018-Apr-20 15:00N 41°11' W 008°42'0 0.0
2018-Apr-20 14:30N 41°11' W 008°42'0 0.0
2018-Apr-20 14:00N 41°11' W 008°42'0 0.1
2018-Apr-20 13:30N 41°11' W 008°42'3 6.4
2018-Apr-20 13:00N 41°09' W 008°45'3 6.0
2018-Apr-20 12:28N 41°06' W 008°47'1 0.0
2018-Apr-19 20:06N 41°05' W 008°46'1 6.5
2018-Apr-19 20:00N 41°06' W 008°46'3 6.4
2018-Apr-19 19:30N 41°09' W 008°43'3 5.5
2018-Apr-19 19:00N 41°11' W 008°42'0 0.0
2018-Apr-19 18:30N 41°11' W 008°42'0 0.0
2018-Apr-19 17:59N 41°11' W 008°42'0 0.0
2018-Apr-19 17:30N 41°11' W 008°42'0 0.0
2018-Apr-19 17:00N 41°11' W 008°42'0 0.0
2018-Apr-19 16:30N 41°11' W 008°42'0 0.0
2018-Apr-19 16:00N 41°11' W 008°42'0 0.0
2018-Apr-19 15:30N 41°11' W 008°42'0 0.0
2018-Apr-19 15:00N 41°11' W 008°42'0 0.3
2018-Apr-19 14:30N 41°11' W 008°42'2 4.7
2018-Apr-19 14:00N 41°09' W 008°43'2 4.3
2018-Apr-19 13:30N 41°07' W 008°44'1 0.1
2018-Apr-18 19:13N 41°07' W 008°46'1 6.6
2018-Apr-18 19:00N 41°08' W 008°45'3 5.7
2018-Apr-18 18:31N 41°10' W 008°42'1 1.3
2018-Apr-18 18:00N 41°11' W 008°42'0 0.0
2018-Apr-18 17:31N 41°11' W 008°42'0 0.0
2018-Apr-18 17:01N 41°11' W 008°42'0 0.0
2018-Apr-18 16:31N 41°11' W 008°42'0 0.0
2018-Apr-18 16:01N 41°11' W 008°42'0 0.0
2018-Apr-18 15:30N 41°11' W 008°42'0 0.0
2018-Apr-18 15:00N 41°11' W 008°42'0 0.0
2018-Apr-18 14:30N 41°11' W 008°42'0 0.0
2018-Apr-18 14:00N 41°11' W 008°42'0 0.0
2018-Apr-18 13:30N 41°11' W 008°42'0 0.0
2018-Apr-18 13:00N 41°11' W 008°42'0 0.0
2018-Apr-18 12:30N 41°11' W 008°42'0 0.0
2018-Apr-18 12:00N 41°11' W 008°42'0 0.4
2018-Apr-18 11:30N 41°11' W 008°42'3 6.0
2018-Apr-18 11:00N 41°08' W 008°44'2 0.1
2018-Apr-17 19:04N 41°07' W 008°45'0 6.8
2018-Apr-17 19:00N 41°07' W 008°45'3 6.1
2018-Apr-17 18:30N 41°10' W 008°43'1 2.9
2018-Apr-17 18:00N 41°11' W 008°42'0 0.0
2018-Apr-17 17:30N 41°11' W 008°42'0 0.0
2018-Apr-17 16:59N 41°11' W 008°42'0 0.0
2018-Apr-17 13:47N 41°11' W 008°42'0 0.0
2018-Apr-17 13:30N 41°11' W 008°42'1 2.7
2018-Apr-17 13:00N 41°10' W 008°43'3 6.6
2018-Apr-17 12:30N 41°07' W 008°45'2 0.1
2018-Apr-16 19:34N 41°05' W 008°46'0 5.7
2018-Apr-16 19:30N 41°06' W 008°46'3 5.6
2018-Apr-16 19:00N 41°08' W 008°44'3 5.1
2018-Apr-16 18:30N 41°10' W 008°42'1 1.4
2018-Apr-16 18:00N 41°11' W 008°42'0 0.0
2018-Apr-16 17:30N 41°11' W 008°42'0 0.0
2018-Apr-16 17:00N 41°11' W 008°42'0 0.0
2018-Apr-16 16:30N 41°11' W 008°42'0 0.0
2018-Apr-16 15:52N 41°11' W 008°42'0 0.0
2018-Apr-16 15:30N 41°11' W 008°42'0 0.0
2018-Apr-16 15:00N 41°11' W 008°42'0 0.1
2018-Apr-16 14:30N 41°11' W 008°42'0 0.2
2018-Apr-16 14:00N 41°11' W 008°42'3 6.1
2018-Apr-16 13:30N 41°08' W 008°44'4 0.2
2018-Apr-15 21:13N 41°05' W 008°46'1 5.9
2018-Apr-15 21:00N 41°06' W 008°45'3 5.8
2018-Apr-15 20:30N 41°09' W 008°43'2 4.8
2018-Apr-15 20:00N 41°11' W 008°42'0 0.0
2018-Apr-13 23:58N 41°11' W 008°42'0 0.0
2018-Apr-13 23:31N 41°11' W 008°42'0 0.0
2018-Apr-13 13:40N 41°11' W 008°42'0 0.0
2018-Apr-13 13:30N 41°11' W 008°42'0 0.4
2018-Apr-13 13:00N 41°11' W 008°42'3 5.8
2018-Apr-13 12:30N 41°08' W 008°44'3 0.2
2018-Apr-12 18:58N 41°05' W 008°46'2 5.2
2018-Apr-12 18:30N 41°07' W 008°45'2 4.8
2018-Apr-12 18:00N 41°09' W 008°43'2 3.5
2018-Apr-12 17:30N 41°11' W 008°42'0 0.0
2018-Apr-12 17:00N 41°11' W 008°42'0 0.0
2018-Apr-12 16:30N 41°11' W 008°42'0 0.0
2018-Apr-12 16:00N 41°11' W 008°42'0 0.0
2018-Apr-12 15:30N 41°11' W 008°42'0 0.0
2018-Apr-12 15:00N 41°11' W 008°42'0 0.0
2018-Apr-12 14:30N 41°11' W 008°42'0 0.0
2018-Apr-12 14:00N 41°11' W 008°42'0 0.8
2018-Apr-12 13:30N 41°11' W 008°42'3 6.4
2018-Apr-12 12:59N 41°08' W 008°44'2 0.1
2018-Apr-11 19:56N 41°06' W 008°45'3 6.0
2018-Apr-11 19:30N 41°08' W 008°44'  

Dump ship's entire track history